Terminal Aerodrome Forecast
Issued by NWS

Home | Current Version | Previous Version | Text Only | Print | Product List | Glossary On
Versions: 1 2 3 4 5 6 7 8 9 10 11 12 13 14 15 16 17
380
FTUS46 KLOX 270532
TAFPMD
TAF
KPMD 270532Z 2706/2806 26007KT P6SM BKN150
     FM271600 28020G30KT P6SM SKC
     FM271900 28025G35KT P6SM SKC
     FM272200 28030G40KT P6SM SKC
     FM280300 30023KT P6SM SKC=

USA.gov is the U.S. government's official web portal to all federal, state and local government web resources and services.